Time;durP1;ratioP1;P1;durP2;ratioP2;P2;SDS_P1;SDS_P2;PMS_P1;PMS_P2;Temp;Humidity;BMP_temperature;BMP_pressure;BME280_temperature;BME280_humidity;BME280_pressure;Samples;Min_cycle;Max_cycle;Signal;HPM_P1;HPM_P2
2022/08/27 00:08:47;;;;;;;34.17;25.52;;;14.10;99.90;;;;;;20408930;29;20036;-58
2022/08/27 00:18:50;;;;;;;35.58;26.38;;;14.20;99.90;;;;;;20448607;29;20089;-52
2022/08/27 00:28:54;;;;;;;31.67;23.35;;;14.20;99.90;;;;;;20486035;29;20047;-51
2022/08/27 00:53:40;;;;;;;43.90;32.28;;;14.30;99.90;;;;;;21077012;27;1701906;-59
2022/08/27 01:03:46;;;;;;;46.60;29.75;;;14.50;99.90;;;;;;21053622;28;20036;-50
2022/08/27 01:13:50;;;;;;;36.50;26.25;;;14.40;99.90;;;;;;21055801;28;20032;-53
2022/08/27 01:24:18;;;;;;;30.73;23.38;;;14.40;99.90;;;;;;21107348;28;20032;-52
2022/08/27 01:34:20;;;;;;;31.60;24.10;;;14.70;99.90;;;;;;21052157;28;20074;-60
2022/08/27 01:44:23;;;;;;;29.42;22.58;;;14.90;99.90;;;;;;21040120;28;20047;-60
2022/08/27 01:54:26;;;;;;;25.98;20.80;;;14.90;99.90;;;;;;21118396;28;20044;-60
2022/08/27 02:04:30;;;;;;;24.83;18.30;;;14.90;99.90;;;;;;21063832;28;20089;-52
2022/08/27 02:14:34;;;;;;;23.17;16.25;;;14.80;99.90;;;;;;21044835;28;20024;-53
2022/08/27 02:24:37;;;;;;;18.63;14.43;;;14.80;99.90;;;;;;21059423;28;20101;-51
2022/08/27 02:34:40;;;;;;;14.93;11.77;;;14.80;99.90;;;;;;21108738;28;20476;-60
2022/08/27 02:44:42;;;;;;;12.85;10.40;;;14.90;99.90;;;;;;21141750;28;20100;-53
2022/08/27 02:54:46;;;;;;;11.95;9.15;;;15.00;99.90;;;;;;21141540;28;20036;-60
2022/08/27 03:04:49;;;;;;;9.15;7.95;;;15.10;99.90;;;;;;21117548;28;20044;-50
2022/08/27 03:14:52;;;;;;;8.32;6.05;;;15.20;99.90;;;;;;21054478;28;20480;-52
2022/08/27 03:24:55;;;;;;;8.25;5.47;;;15.20;99.90;;;;;;21054795;28;20381;-50
2022/08/27 03:34:58;;;;;;;5.13;4.60;;;15.20;99.90;;;;;;21106320;28;20023;-58
2022/08/27 03:45:00;;;;;;;4.68;3.63;;;15.20;99.90;;;;;;21136819;28;20105;-60
2022/08/27 03:55:06;;;;;;;5.72;3.75;;;15.30;99.90;;;;;;21136750;28;20036;-54
2022/08/27 04:05:13;;;;;;;8.35;3.63;;;15.30;99.90;;;;;;21136325;28;20483;-52
2022/08/27 04:15:16;;;;;;;4.72;3.67;;;15.20;99.90;;;;;;21135154;28;20492;-53
2022/08/27 04:25:19;;;;;;;4.32;3.45;;;15.20;99.90;;;;;;21109053;28;20032;-51
2022/08/27 04:35:22;;;;;;;6.70;3.75;;;15.20;99.90;;;;;;21032884;28;20546;-60
2022/08/27 04:45:25;;;;;;;4.45;3.47;;;15.30;99.90;;;;;;21026344;28;20045;-61
2022/08/27 04:55:28;;;;;;;7.97;4.22;;;15.30;99.90;;;;;;20965856;28;20040;-54
2022/08/27 05:05:31;;;;;;;6.13;5.00;;;15.30;99.90;;;;;;20964934;28;20028;-62
2022/08/27 05:15:35;;;;;;;6.30;5.03;;;14.60;99.90;;;;;;20964052;28;20036;-51
2022/08/27 05:25:39;;;;;;;5.65;4.47;;;14.40;99.90;;;;;;20963510;28;20099;-60
2022/08/27 05:35:44;;;;;;;7.75;4.30;;;14.40;99.90;;;;;;20964391;28;20036;-60
2022/08/27 05:45:48;;;;;;;6.45;5.15;;;14.60;99.90;;;;;;20978813;28;20045;-62
2022/08/27 05:55:51;;;;;;;6.72;4.88;;;14.60;99.90;;;;;;20977851;28;20485;-53
2022/08/27 06:06:03;;;;;;;5.85;4.68;;;14.40;99.90;;;;;;20960782;28;20540;-50
2022/08/27 06:16:08;;;;;;;7.13;4.88;;;14.30;99.90;;;;;;20976231;28;20044;-64
2022/08/27 06:26:14;;;;;;;7.63;5.45;;;14.20;99.90;;;;;;20944578;28;20029;-64
2022/08/27 06:36:20;;;;;;;8.70;5.45;;;14.40;99.90;;;;;;20947413;28;20087;-64
2022/08/27 06:46:25;;;;;;;11.73;8.50;;;14.80;99.90;;;;;;20957223;28;20393;-52
2022/08/27 06:56:30;;;;;;;11.88;9.23;;;15.00;99.90;;;;;;20971257;28;20033;-64
2022/08/27 07:06:35;;;;;;;13.95;9.50;;;15.00;99.90;;;;;;21045274;28;20035;-60
2022/08/27 07:16:39;;;;;;;12.57;8.93;;;14.90;99.90;;;;;;21052838;28;20105;-48
2022/08/27 07:26:42;;;;;;;16.38;11.57;;;14.80;99.90;;;;;;21053764;28;20469;-64
2022/08/27 07:36:45;;;;;;;19.85;13.25;;;14.60;99.90;;;;;;21052749;28;20032;-64
2022/08/27 07:46:48;;;;;;;22.20;14.52;;;14.50;99.90;;;;;;21026200;28;20079;-65
2022/08/27 07:56:52;;;;;;;17.50;12.15;;;14.40;99.90;;;;;;20949732;28;20036;-65
2022/08/27 08:06:55;;;;;;;19.35;12.20;;;14.40;99.90;;;;;;20964602;28;20032;-64
2022/08/27 08:17:00;;;;;;;16.30;10.25;;;14.40;99.90;;;;;;20964591;28;20451;-63
2022/08/27 08:27:03;;;;;;;23.58;14.07;;;14.40;99.90;;;;;;20965971;28;20036;-64
2022/08/27 08:37:06;;;;;;;20.65;13.05;;;14.40;99.90;;;;;;20964347;28;20101;-57
2022/08/27 08:47:13;;;;;;;14.68;10.10;;;14.60;99.90;;;;;;20964085;28;20048;-64
2022/08/27 08:57:25;;;;;;;13.25;8.90;;;15.10;99.90;;;;;;20964325;28;20032;-64
2022/08/27 09:07:47;;;;;;;11.95;8.63;;;15.30;99.90;;;;;;20967028;28;20478;-64
2022/08/27 09:17:50;;;;;;;14.55;10.00;;;15.40;99.90;;;;;;20963975;28;20062;-53
2022/08/27 09:28:00;;;;;;;12.88;9.70;;;15.10;99.90;;;;;;20979957;28;20102;-53
2022/08/27 09:38:03;;;;;;;14.33;10.20;;;14.80;99.90;;;;;;20962522;28;20032;-64
2022/08/27 09:48:23;;;;;;;14.45;10.80;;;14.70;99.90;;;;;;20977324;28;20102;-52
2022/08/27 09:58:30;;;;;;;19.20;10.40;;;14.70;99.90;;;;;;20961405;28;20028;-53
2022/08/27 10:08:45;;;;;;;14.00;10.00;;;14.60;99.90;;;;;;20975963;28;20040;-65
2022/08/27 10:19:07;;;;;;;16.77;9.70;;;14.50;99.90;;;;;;20975305;28;20182;-52
2022/08/27 10:29:23;;;;;;;13.93;9.85;;;14.30;99.90;;;;;;20973267;28;20063;-66
2022/08/27 10:39:46;;;;;;;12.32;8.23;;;14.20;99.90;;;;;;20973334;28;20028;-53
2022/08/27 10:50:08;;;;;;;13.40;9.93;;;14.10;99.90;;;;;;20972076;28;20052;-65
2022/08/27 11:00:23;;;;;;;10.73;8.73;;;14.10;99.90;;;;;;20971137;28;20041;-64
2022/08/27 11:10:35;;;;;;;17.45;10.07;;;14.00;99.90;;;;;;20954476;28;20029;-64
2022/08/27 11:21:01;;;;;;;12.07;7.60;;;13.90;99.90;;;;;;20970171;28;20078;-53
2022/08/27 11:31:33;;;;;;;12.15;8.02;;;13.80;99.90;;;;;;20968124;28;20044;-64
2022/08/27 11:42:23;;;;;;;15.85;7.60;;;13.80;99.90;;;;;;20969753;28;20040;-53
2022/08/27 11:52:30;;;;;;;9.60;6.13;;;13.70;99.90;;;;;;20619941;28;20051;-52
2022/08/27 12:02:33;;;;;;;7.03;4.68;;;13.50;99.90;;;;;;20630656;28;20050;-53
2022/08/27 12:12:47;;;;;;;6.55;3.67;;;13.30;99.90;;;;;;20630590;28;20124;-54
2022/08/27 12:33:29;;;;;;;5.55;2.92;;;13.20;99.90;;;;;;20021706;28;10000674;-54
2022/08/27 12:43:36;;;;;;;4.88;2.83;;;13.20;99.90;;;;;;20637689;28;20038;-63
2022/08/27 12:54:00;;;;;;;3.20;2.47;;;13.30;99.90;;;;;;20709109;28;20138;-54
2022/08/27 13:04:05;;;;;;;3.15;2.55;;;13.50;99.90;;;;;;20701971;28;20406;-66
2022/08/27 13:14:15;;;;;;;3.70;2.50;;;13.70;99.90;;;;;;20733694;28;20038;-66
2022/08/27 13:24:20;;;;;;;;;;;14.10;99.90;;;;;;20717656;28;20042;-53
2022/08/27 13:34:26;;;;;;;2.33;2.10;;;14.70;99.90;;;;;;20715927;28;19913;-53
2022/08/27 13:44:39;;;;;;;2.67;1.70;;;15.40;99.90;;;;;;20732045;28;20100;-51
2022/08/27 13:54:54;;;;;;;1.42;1.10;;;16.10;99.90;;;;;;20720833;28;20042;-54
2022/08/27 14:05:26;;;;;;;2.40;1.50;;;16.80;99.90;;;;;;20729162;28;20030;-62
2022/08/27 14:15:37;;;;;;;2.88;1.67;;;17.00;99.90;;;;;;20745250;28;20579;-50
2022/08/27 14:25:40;;;;;;;1.75;1.52;;;16.90;99.90;;;;;;20728692;28;20155;-52
2022/08/27 14:35:44;;;;;;;1.45;1.17;;;17.00;99.90;;;;;;20743929;28;20049;-54
2022/08/27 14:45:47;;;;;;;1.88;1.10;;;17.10;99.90;;;;;;20742983;28;20498;-62
2022/08/27 14:55:50;;;;;;;1.10;0.90;;;17.10;99.90;;;;;;20742238;28;20061;-52
2022/08/27 15:05:55;;;;;;;1.13;0.93;;;17.10;99.90;;;;;;20741172;28;20042;-53
2022/08/27 15:15:58;;;;;;;1.40;1.00;;;17.70;99.90;;;;;;20740829;28;20030;-61
2022/08/27 15:26:00;;;;;;;2.92;1.50;;;18.30;99.90;;;;;;20723306;28;20069;-61
2022/08/27 15:36:03;;;;;;;1.52;1.02;;;17.70;99.90;;;;;;20738843;28;20386;-48
2022/08/27 15:46:06;;;;;;;1.65;1.35;;;17.50;99.90;;;;;;20738284;28;20085;-61
2022/08/27 15:56:09;;;;;;;2.08;1.48;;;17.30;99.90;;;;;;20721361;28;20034;-50
2022/08/27 16:06:13;;;;;;;1.98;1.40;;;16.80;99.90;;;;;;20719420;28;20390;-53
2022/08/27 16:16:19;;;;;;;2.63;1.20;;;16.70;99.90;;;;;;20734908;28;20092;-52
2022/08/27 16:26:22;;;;;;;2.42;1.40;;;16.60;99.90;;;;;;20719471;28;20401;-61
2022/08/27 16:36:24;;;;;;;2.05;1.70;;;16.50;99.90;;;;;;20717162;28;20080;-49
2022/08/27 16:46:27;;;;;;;3.17;1.00;;;16.30;99.90;;;;;;20732519;28;20564;-51
2022/08/27 16:56:29;;;;;;;1.77;1.40;;;16.20;99.90;;;;;;20732991;28;20096;-53
2022/08/27 17:06:33;;;;;;;1.42;0.80;;;16.00;99.90;;;;;;20715384;28;20080;-48
2022/08/27 17:16:36;;;;;;;1.15;0.95;;;15.90;99.90;;;;;;20731318;28;20038;-51
2022/08/27 17:26:39;;;;;;;1.40;1.20;;;15.80;99.90;;;;;;20731863;28;20034;-60
2022/08/27 17:36:42;;;;;;;2.13;0.50;;;15.50;99.90;;;;;;20746387;28;20038;-50
2022/08/27 17:46:45;;;;;;;1.17;0.88;;;15.10;99.90;;;;;;20713310;28;20472;-59
2022/08/27 17:56:48;;;;;;;1.13;1.00;;;14.90;99.90;;;;;;20745726;28;20452;-51
2022/08/27 18:06:51;;;;;;;2.38;1.35;;;14.60;99.90;;;;;;20744109;28;20038;-60
2022/08/27 18:16:54;;;;;;;1.23;1.10;;;14.20;99.90;;;;;;20743579;28;20479;-47
2022/08/27 18:26:57;;;;;;;1.67;1.17;;;14.10;99.90;;;;;;20726376;28;20065;-50
2022/08/27 18:36:59;;;;;;;1.98;1.45;;;14.00;99.90;;;;;;20741626;28;20033;-59
2022/08/27 18:47:02;;;;;;;1.85;1.20;;;13.70;99.90;;;;;;20724983;28;20045;-60
2022/08/27 18:57:04;;;;;;;2.53;1.00;;;13.70;99.90;;;;;;20740813;28;20038;-52
2022/08/27 19:07:08;;;;;;;1.95;1.40;;;13.60;99.90;;;;;;20707046;28;20037;-59
2022/08/27 19:17:19;;;;;;;6.35;3.55;;;13.70;99.90;;;;;;20738643;28;20034;-60
2022/08/27 19:27:26;;;;;;;1.85;1.40;;;13.70;99.90;;;;;;20738064;28;20092;-52
2022/08/27 19:37:31;;;;;;;1.88;1.35;;;13.60;99.90;;;;;;20737153;28;20445;-52
2022/08/27 19:47:36;;;;;;;1.67;1.25;;;13.60;99.90;;;;;;20736049;28;20042;-60
2022/08/27 19:57:38;;;;;;;2.42;1.48;;;13.70;99.90;;;;;;20735010;28;20088;-51
2022/08/27 20:07:42;;;;;;;1.92;1.42;;;13.70;99.90;;;;;;18976890;28;10000980;-52
2022/08/27 20:17:46;;;;;;;1.10;1.00;;;13.50;99.90;;;;;;20723828;28;20099;-58
2022/08/27 20:27:50;;;;;;;1.85;1.20;;;13.50;99.90;;;;;;20740006;28;20041;-52
2022/08/27 20:37:53;;;;;;;2.30;1.42;;;13.50;99.90;;;;;;20722689;28;20042;-53
2022/08/27 20:47:57;;;;;;;3.47;1.20;;;13.40;99.90;;;;;;20721971;28;20166;-51
2022/08/27 21:08:22;;;;;;;1.45;1.15;;;13.60;99.90;;;;;;20734762;28;20038;-58
2022/08/27 21:18:25;;;;;;;2.88;1.70;;;13.90;99.90;;;;;;20753905;28;20038;-53
2022/08/27 21:28:28;;;;;;;2.50;2.05;;;14.10;99.90;;;;;;20736792;28;20033;-51
2022/08/27 21:38:31;;;;;;;2.33;1.70;;;14.00;99.90;;;;;;20735978;28;20037;-58
2022/08/27 21:48:35;;;;;;;1.77;1.30;;;13.70;99.90;;;;;;20751625;28;20111;-51
2022/08/27 21:58:38;;;;;;;1.60;1.40;;;13.60;99.90;;;;;;20719533;28;20034;-51
2022/08/27 22:08:42;;;;;;;2.00;1.33;;;13.80;99.90;;;;;;20750802;28;20486;-53
2022/08/27 22:18:44;;;;;;;2.13;1.45;;;13.40;99.90;;;;;;20749599;28;20056;-58
2022/08/27 22:28:48;;;;;;;2.60;1.40;;;13.20;99.90;;;;;;20749397;28;20034;-58
2022/08/27 22:38:50;;;;;;;3.53;1.48;;;13.40;99.90;;;;;;20732910;28;20037;-51
2022/08/27 22:48:53;;;;;;;1.75;1.27;;;13.30;99.90;;;;;;20747898;28;20463;-50
2022/08/27 22:58:56;;;;;;;4.22;1.40;;;13.20;99.90;;;;;;20747223;28;20398;-51
2022/08/27 23:09:02;;;;;;;1.73;1.25;;;13.20;99.90;;;;;;20768080;28;20041;-58
2022/08/27 23:19:05;;;;;;;2.47;1.73;;;13.00;99.90;;;;;;20827602;28;20033;-58
2022/08/27 23:29:09;;;;;;;2.08;1.40;;;12.80;99.90;;;;;;20740589;28;20033;-50
2022/08/27 23:39:13;;;;;;;5.53;2.10;;;12.90;99.90;;;;;;20826333;28;20100;-51
2022/08/27 23:49:17;;;;;;;3.38;2.25;;;12.90;99.90;;;;;;20824939;28;20091;-57
2022/08/27 23:59:20;;;;;;;3.05;1.80;;;12.80;99.90;;;;;;20824425;28;20033;-53
